Time;durP1;ratioP1;P1;durP2;ratioP2;P2;SDS_P1;SDS_P2;PMS_P1;PMS_P2;Temp;Humidity;BMP_temperature;BMP_pressure;BME280_temperature;BME280_humidity;BME280_pressure;Samples;Min_cycle;Max_cycle;Signal;HPM_P1;HPM_P2
2020/12/28 00:02:13;;;;;;;0.90;0.90;;;8.20;97.80;;;;;;5049366;28;21030;-50
2020/12/28 00:04:40;;;;;;;0.70;0.70;;;8.20;97.90;;;;;;5053632;28;20697;-51
2020/12/28 00:07:07;;;;;;;1.13;1.00;;;8.20;98.00;;;;;;5053036;28;20640;-50
2020/12/28 00:09:35;;;;;;;1.20;1.07;;;8.20;98.10;;;;;;5053226;28;21216;-51
2020/12/28 00:12:01;;;;;;;1.00;0.60;;;8.20;98.20;;;;;;5052833;28;21028;-50
2020/12/28 00:14:28;;;;;;;1.57;1.40;;;8.20;98.30;;;;;;5053044;28;21114;-50
2020/12/28 00:16:55;;;;;;;1.00;0.70;;;8.10;98.30;;;;;;5052911;28;20660;-51
2020/12/28 00:19:22;;;;;;;1.00;0.90;;;8.10;98.20;;;;;;5053256;28;20676;-50
2020/12/28 00:21:48;;;;;;;1.23;1.00;;;8.10;98.00;;;;;;5052668;28;20710;-50
2020/12/28 00:24:15;;;;;;;1.30;0.80;;;8.10;98.00;;;;;;5053082;28;21204;-50
2020/12/28 00:26:43;;;;;;;1.10;1.00;;;8.10;98.10;;;;;;5052931;28;21325;-50
2020/12/28 00:29:10;;;;;;;1.10;0.80;;;8.00;98.00;;;;;;5052598;28;20656;-50
2020/12/28 00:31:37;;;;;;;0.60;0.50;;;8.10;98.20;;;;;;5052237;28;20633;-50
2020/12/28 00:34:04;;;;;;;1.30;1.10;;;8.10;98.10;;;;;;5051385;28;20667;-50
2020/12/28 00:36:30;;;;;;;1.10;0.77;;;8.10;98.10;;;;;;5052462;28;20706;-50
2020/12/28 00:38:57;;;;;;;2.17;0.90;;;8.00;97.80;;;;;;5052925;28;20698;-49
2020/12/28 00:41:24;;;;;;;0.73;0.73;;;8.00;97.90;;;;;;5053002;28;20628;-50
2020/12/28 00:43:52;;;;;;;1.10;0.73;;;8.10;97.90;;;;;;5036742;28;20624;-50
2020/12/28 00:46:18;;;;;;;0.70;0.70;;;8.10;98.00;;;;;;5032162;28;20633;-49
2020/12/28 00:48:45;;;;;;;1.47;1.13;;;8.10;98.00;;;;;;5031587;28;20664;-50
2020/12/28 00:51:12;;;;;;;0.87;0.67;;;8.10;98.10;;;;;;5030964;28;20962;-50
2020/12/28 00:53:39;;;;;;;1.67;1.10;;;8.10;98.20;;;;;;5034573;28;20625;-49
2020/12/28 00:56:06;;;;;;;1.37;1.17;;;8.10;98.30;;;;;;5051339;28;21018;-50
2020/12/28 00:58:35;;;;;;;1.03;0.97;;;8.10;98.30;;;;;;5050949;28;21153;-50
2020/12/28 01:01:02;;;;;;;0.97;0.70;;;8.10;98.30;;;;;;5032040;28;21116;-50
2020/12/28 01:03:29;;;;;;;1.33;0.90;;;8.10;98.00;;;;;;5050423;28;20678;-50
2020/12/28 01:05:56;;;;;;;1.73;1.30;;;8.00;98.00;;;;;;5044246;28;21177;-50
2020/12/28 01:08:22;;;;;;;0.70;0.70;;;8.00;98.10;;;;;;5049680;28;21221;-50
2020/12/28 01:10:49;;;;;;;3.07;1.40;;;8.00;98.10;;;;;;5050807;28;21246;-50
2020/12/28 01:13:16;;;;;;;1.03;0.90;;;8.00;98.10;;;;;;5050683;28;20632;-50
2020/12/28 01:15:43;;;;;;;5.40;1.10;;;8.00;98.20;;;;;;5050662;28;20711;-50
2020/12/28 01:18:11;;;;;;;0.90;0.90;;;8.00;98.30;;;;;;5050363;28;20690;-50
2020/12/28 01:20:38;;;;;;;0.97;0.90;;;8.10;98.30;;;;;;5050645;28;20653;-50
2020/12/28 01:23:05;;;;;;;1.13;1.00;;;8.10;98.30;;;;;;5050441;28;20786;-50
2020/12/28 01:25:32;;;;;;;3.50;1.43;;;8.10;98.30;;;;;;5051019;28;20642;-50
2020/12/28 01:27:59;;;;;;;6.23;1.20;;;8.10;98.40;;;;;;5050348;28;21116;-50
2020/12/28 01:30:25;;;;;;;1.10;0.73;;;8.00;98.50;;;;;;5050527;28;20661;-50
2020/12/28 01:32:52;;;;;;;1.10;1.00;;;8.10;98.60;;;;;;5050435;28;20666;-50
2020/12/28 01:35:20;;;;;;;1.90;0.80;;;8.00;98.60;;;;;;5050104;28;20691;-50
2020/12/28 01:37:46;;;;;;;1.50;1.40;;;8.00;98.60;;;;;;5050511;28;20699;-50
2020/12/28 01:40:14;;;;;;;1.90;1.23;;;8.00;98.60;;;;;;5050864;28;21022;-50
2020/12/28 01:42:41;;;;;;;1.27;0.90;;;8.00;98.70;;;;;;5049935;28;20702;-50
2020/12/28 01:45:08;;;;;;;0.80;0.80;;;7.90;99.10;;;;;;5049397;28;20670;-50
2020/12/28 01:47:34;;;;;;;1.00;0.90;;;7.90;98.90;;;;;;5049493;28;20682;-50
2020/12/28 01:50:01;;;;;;;1.03;0.93;;;7.90;99.00;;;;;;5049921;28;20653;-50
2020/12/28 01:52:29;;;;;;;1.90;1.20;;;8.00;99.00;;;;;;5050405;28;20620;-50
2020/12/28 01:54:56;;;;;;;0.90;0.80;;;8.00;98.80;;;;;;5049708;28;20649;-50
2020/12/28 01:57:22;;;;;;;1.13;1.03;;;7.90;98.60;;;;;;5049857;28;20632;-51
2020/12/28 01:59:49;;;;;;;1.30;1.20;;;7.90;98.70;;;;;;5032173;28;20657;-51
2020/12/28 02:02:16;;;;;;;0.90;0.90;;;8.00;98.80;;;;;;5050124;28;20708;-51
2020/12/28 02:04:43;;;;;;;2.23;1.00;;;7.90;98.70;;;;;;5049217;28;20653;-51
2020/12/28 02:07:09;;;;;;;2.17;0.97;;;7.90;98.80;;;;;;5049888;28;21227;-52
2020/12/28 02:09:37;;;;;;;0.70;0.60;;;7.90;98.80;;;;;;5049848;28;20731;-52
2020/12/28 02:12:04;;;;;;;2.43;1.33;;;7.90;98.70;;;;;;5049013;28;20633;-52
2020/12/28 02:14:30;;;;;;;0.87;0.83;;;7.90;98.70;;;;;;5049889;28;20718;-52
2020/12/28 02:16:57;;;;;;;1.57;1.13;;;7.90;98.50;;;;;;5050080;28;21229;-51
2020/12/28 02:19:24;;;;;;;1.30;1.10;;;7.90;98.40;;;;;;5049647;28;20673;-50
2020/12/28 02:21:51;;;;;;;0.77;0.70;;;7.90;98.50;;;;;;5049877;28;21133;-51
2020/12/28 02:24:19;;;;;;;2.20;0.80;;;7.90;98.60;;;;;;5048940;28;20629;-51
2020/12/28 02:26:46;;;;;;;1.77;1.53;;;7.90;98.60;;;;;;5049437;28;20648;-51
2020/12/28 02:29:13;;;;;;;1.20;1.10;;;7.80;99.10;;;;;;5049151;28;20715;-51
2020/12/28 02:31:39;;;;;;;1.40;1.30;;;7.90;98.90;;;;;;5049651;28;21045;-51
2020/12/28 02:34:06;;;;;;;1.10;1.00;;;7.80;98.90;;;;;;5049736;28;20639;-51
2020/12/28 02:36:33;;;;;;;1.00;0.83;;;7.90;99.00;;;;;;5049513;28;20628;-51
2020/12/28 02:39:00;;;;;;;1.27;0.87;;;7.90;99.00;;;;;;5031713;28;21250;-51
2020/12/28 02:41:27;;;;;;;1.07;0.80;;;7.80;98.80;;;;;;5049313;28;21234;-50
2020/12/28 02:43:54;;;;;;;0.80;0.70;;;7.90;99.00;;;;;;5048451;28;20767;-50
2020/12/28 02:46:20;;;;;;;1.60;0.80;;;7.90;98.90;;;;;;5049382;28;20660;-51
2020/12/28 02:48:47;;;;;;;1.43;0.97;;;7.90;98.90;;;;;;5048696;28;21187;-51
2020/12/28 02:51:14;;;;;;;1.43;0.90;;;7.90;98.90;;;;;;5049397;28;20652;-51
2020/12/28 02:53:41;;;;;;;2.20;1.10;;;7.90;98.90;;;;;;5049486;28;20632;-50
2020/12/28 02:56:08;;;;;;;1.13;1.10;;;7.90;99.00;;;;;;5048478;28;20783;-50
2020/12/28 02:58:35;;;;;;;1.43;0.90;;;7.90;99.10;;;;;;5049697;28;20687;-53
2020/12/28 03:01:02;;;;;;;0.93;0.60;;;7.90;99.10;;;;;;5049598;28;20700;-51
2020/12/28 03:03:28;;;;;;;1.63;1.20;;;7.90;99.10;;;;;;5049306;28;21178;-52
2020/12/28 03:05:55;;;;;;;1.00;1.00;;;7.90;99.20;;;;;;5049044;28;20978;-52
2020/12/28 03:08:22;;;;;;;1.33;0.87;;;7.90;99.30;;;;;;5049171;28;20666;-51
2020/12/28 03:10:48;;;;;;;0.87;0.70;;;7.90;99.30;;;;;;5048736;28;20710;-52
2020/12/28 03:13:16;;;;;;;1.10;0.97;;;7.90;99.40;;;;;;5048123;28;21474;-52
2020/12/28 03:15:43;;;;;;;1.37;1.00;;;7.90;99.30;;;;;;5048007;28;20714;-52
2020/12/28 03:18:09;;;;;;;0.80;0.70;;;7.90;99.60;;;;;;5048978;28;21145;-51
2020/12/28 03:20:36;;;;;;;1.53;0.83;;;8.00;99.30;;;;;;5048591;28;20722;-53
2020/12/28 03:23:03;;;;;;;1.20;1.10;;;8.10;99.30;;;;;;5048592;28;20640;-53
2020/12/28 03:25:30;;;;;;;1.43;0.90;;;8.10;99.10;;;;;;5048949;28;20628;-50
2020/12/28 03:27:56;;;;;;;0.97;0.90;;;8.10;98.90;;;;;;5049075;28;21184;-50
2020/12/28 03:30:24;;;;;;;1.00;0.80;;;8.10;98.70;;;;;;5048671;28;20660;-53
2020/12/28 03:32:51;;;;;;;0.73;0.73;;;8.10;98.60;;;;;;5049650;28;20628;-53
2020/12/28 03:35:18;;;;;;;1.00;0.90;;;8.10;98.50;;;;;;5048761;28;20660;-52
2020/12/28 03:37:44;;;;;;;1.10;0.97;;;8.10;98.60;;;;;;5048793;28;20657;-53
2020/12/28 03:40:11;;;;;;;1.73;0.70;;;8.10;98.50;;;;;;5048797;28;20656;-54
2020/12/28 03:42:38;;;;;;;1.00;0.90;;;8.10;98.40;;;;;;5049061;28;20635;-53
2020/12/28 03:45:05;;;;;;;2.17;1.70;;;8.10;98.30;;;;;;5048541;28;20656;-52
2020/12/28 03:47:32;;;;;;;1.07;0.77;;;8.20;98.40;;;;;;5048184;28;20709;-53
2020/12/28 03:49:59;;;;;;;0.70;0.60;;;8.10;98.20;;;;;;5048791;28;20689;-52
2020/12/28 03:52:26;;;;;;;0.90;0.70;;;8.20;98.10;;;;;;5048879;28;20975;-53
2020/12/28 03:54:52;;;;;;;1.53;0.87;;;8.20;98.00;;;;;;5048841;28;20951;-53
2020/12/28 03:57:19;;;;;;;1.07;0.60;;;8.20;97.90;;;;;;5048940;28;20658;-53
2020/12/28 03:59:46;;;;;;;0.70;0.50;;;8.10;97.90;;;;;;5048831;28;20730;-52
2020/12/28 04:02:13;;;;;;;1.10;1.00;;;8.10;97.90;;;;;;5048505;28;20701;-52
2020/12/28 04:04:40;;;;;;;0.83;0.77;;;8.10;98.10;;;;;;5049175;28;20621;-53
2020/12/28 04:07:07;;;;;;;1.10;0.70;;;8.10;98.10;;;;;;5050858;28;20731;-53
2020/12/28 04:09:34;;;;;;;1.20;0.67;;;8.10;98.30;;;;;;5052255;28;20660;-53
2020/12/28 04:12:01;;;;;;;0.93;0.60;;;8.20;98.20;;;;;;5052366;28;21208;-52
2020/12/28 04:14:27;;;;;;;0.93;0.70;;;8.10;98.00;;;;;;5052466;28;20660;-52
2020/12/28 04:16:54;;;;;;;1.00;0.70;;;8.20;98.00;;;;;;5052248;28;20683;-53
2020/12/28 04:19:21;;;;;;;1.03;0.80;;;8.20;97.90;;;;;;5052114;28;21477;-53
2020/12/28 04:21:48;;;;;;;1.20;0.77;;;8.20;97.70;;;;;;5052038;28;20661;-53
2020/12/28 04:24:16;;;;;;;0.73;0.73;;;8.20;97.50;;;;;;5052335;28;20656;-52
2020/12/28 04:26:43;;;;;;;0.70;0.60;;;8.10;97.40;;;;;;5051814;28;20658;-52
2020/12/28 04:29:10;;;;;;;1.23;0.70;;;8.10;97.50;;;;;;5051676;28;20691;-52
2020/12/28 04:31:37;;;;;;;0.60;0.60;;;8.10;97.50;;;;;;5051702;28;20700;-51
2020/12/28 04:34:04;;;;;;;1.00;0.70;;;8.10;97.40;;;;;;5051683;28;20979;-53
2020/12/28 04:36:31;;;;;;;2.60;0.80;;;8.10;97.50;;;;;;5051930;28;20704;-52
2020/12/28 04:38:58;;;;;;;0.93;0.53;;;8.10;97.50;;;;;;5051954;28;20718;-52
2020/12/28 04:41:28;;;;;;;0.80;0.60;;;8.00;97.50;;;;;;5051727;28;20665;-51
2020/12/28 04:43:55;;;;;;;1.60;0.77;;;8.00;98.00;;;;;;5050914;28;21016;-50
2020/12/28 04:46:21;;;;;;;2.00;0.70;;;8.00;97.90;;;;;;5052107;28;21242;-51
2020/12/28 04:48:48;;;;;;;0.87;0.67;;;8.00;98.00;;;;;;5051247;28;20672;-51
2020/12/28 04:51:15;;;;;;;0.70;0.70;;;8.00;98.00;;;;;;5052024;28;20652;-50
2020/12/28 04:53:42;;;;;;;1.40;0.80;;;8.00;98.00;;;;;;5028519;28;21269;-51
2020/12/28 04:56:09;;;;;;;1.30;0.70;;;8.00;98.00;;;;;;5045638;28;20696;-51
2020/12/28 04:58:36;;;;;;;0.60;0.50;;;8.10;98.00;;;;;;5051555;28;21199;-51
2020/12/28 05:01:03;;;;;;;5.83;0.90;;;8.10;98.00;;;;;;5050851;28;21227;-51
2020/12/28 05:03:30;;;;;;;0.93;0.77;;;8.20;98.00;;;;;;5051533;28;20645;-51
2020/12/28 05:05:56;;;;;;;0.73;0.73;;;8.20;97.90;;;;;;5051983;28;20680;-51
2020/12/28 05:08:23;;;;;;;0.77;0.77;;;8.20;97.60;;;;;;5050985;28;20683;-52
2020/12/28 05:10:51;;;;;;;0.90;0.70;;;8.10;97.60;;;;;;5051788;28;21201;-52
2020/12/28 05:13:18;;;;;;;0.83;0.67;;;8.20;97.60;;;;;;5052566;28;20930;-52
2020/12/28 05:15:46;;;;;;;1.73;0.63;;;8.20;97.40;;;;;;5063073;28;20752;-52
2020/12/28 05:18:15;;;;;;;0.90;0.80;;;8.20;97.30;;;;;;5070800;28;20986;-53
2020/12/28 05:20:43;;;;;;;1.17;0.97;;;8.20;97.30;;;;;;5052842;28;20695;-51
2020/12/28 05:23:10;;;;;;;0.70;0.70;;;8.20;97.20;;;;;;5051415;28;20656;-51
2020/12/28 05:25:37;;;;;;;0.77;0.77;;;8.20;97.20;;;;;;5051265;28;20703;-51
2020/12/28 05:28:04;;;;;;;0.60;0.60;;;8.20;97.20;;;;;;5051199;28;20629;-51
2020/12/28 05:30:32;;;;;;;0.80;0.80;;;8.30;97.10;;;;;;5051577;28;21001;-51
2020/12/28 05:33:02;;;;;;;1.47;1.13;;;8.30;96.80;;;;;;5051253;28;21189;-51
2020/12/28 05:35:28;;;;;;;0.80;0.80;;;8.30;96.70;;;;;;5051390;28;20689;-51
2020/12/28 05:37:55;;;;;;;1.00;0.90;;;8.40;96.60;;;;;;5051188;28;21274;-51
2020/12/28 05:40:22;;;;;;;0.60;0.60;;;8.40;96.50;;;;;;5050967;28;20685;-51
2020/12/28 05:42:49;;;;;;;1.07;0.80;;;8.40;96.20;;;;;;5051041;28;21005;-51
2020/12/28 05:45:16;;;;;;;0.50;0.50;;;8.40;96.10;;;;;;5050503;28;20645;-51
2020/12/28 05:47:47;;;;;;;2.30;0.83;;;8.40;96.10;;;;;;5050171;28;20688;-51
2020/12/28 05:50:14;;;;;;;1.13;0.80;;;8.50;96.10;;;;;;5050949;28;20951;-51
2020/12/28 05:52:41;;;;;;;0.93;0.83;;;8.50;96.00;;;;;;5050657;28;20653;-53
2020/12/28 05:55:07;;;;;;;1.13;0.93;;;8.50;96.00;;;;;;5050286;28;20686;-52
2020/12/28 05:57:34;;;;;;;2.43;1.03;;;8.60;96.10;;;;;;5050654;28;20660;-53
2020/12/28 06:00:01;;;;;;;1.20;0.83;;;8.60;96.10;;;;;;5050218;28;20689;-51
2020/12/28 06:02:28;;;;;;;1.73;1.17;;;8.60;96.20;;;;;;5050461;28;20668;-50
2020/12/28 06:04:55;;;;;;;1.10;1.00;;;8.50;96.00;;;;;;5050374;28;20649;-50
2020/12/28 06:07:22;;;;;;;0.70;0.70;;;8.60;96.00;;;;;;5050037;28;21160;-52
2020/12/28 06:09:56;;;;;;;1.10;0.93;;;8.60;96.30;;;;;;5050632;28;20710;-53
2020/12/28 06:12:22;;;;;;;0.60;0.60;;;8.60;96.00;;;;;;5050505;28;20706;-53
2020/12/28 06:14:50;;;;;;;0.90;0.90;;;8.50;96.20;;;;;;5050454;28;20625;-51
2020/12/28 06:17:17;;;;;;;0.97;0.97;;;8.60;95.90;;;;;;5050248;28;21193;-52
2020/12/28 06:19:43;;;;;;;1.20;1.00;;;8.60;95.90;;;;;;5050349;28;20704;-52
2020/12/28 06:22:21;;;;;;;1.30;1.10;;;8.60;95.80;;;;;;5050704;28;20661;-53
2020/12/28 06:24:57;;;;;;;0.90;0.80;;;8.60;95.70;;;;;;5050133;28;20690;-52
2020/12/28 06:27:28;;;;;;;1.47;0.90;;;8.60;95.60;;;;;;5050210;28;20660;-52
2020/12/28 06:29:55;;;;;;;1.33;0.83;;;8.60;95.60;;;;;;5049318;28;21190;-52
2020/12/28 06:32:21;;;;;;;1.23;1.13;;;8.60;95.60;;;;;;5048623;28;20618;-52
2020/12/28 06:35:00;;;;;;;1.03;0.90;;;8.60;95.70;;;;;;5047579;28;20661;-51
2020/12/28 06:37:27;;;;;;;1.37;0.80;;;8.60;95.90;;;;;;5032476;28;20617;-51
2020/12/28 06:39:57;;;;;;;1.10;1.00;;;8.70;96.00;;;;;;5049933;28;20688;-51
2020/12/28 06:42:24;;;;;;;0.77;0.77;;;8.70;96.00;;;;;;5050288;28;20636;-53
2020/12/28 06:44:50;;;;;;;1.40;1.20;;;8.70;96.00;;;;;;5049596;28;20973;-52
2020/12/28 06:47:18;;;;;;;0.80;0.80;;;8.70;96.00;;;;;;5050011;28;20665;-53
2020/12/28 06:49:45;;;;;;;2.37;1.20;;;8.80;96.00;;;;;;5049910;28;20727;-52
2020/12/28 06:52:12;;;;;;;2.20;2.00;;;8.80;96.00;;;;;;5050273;28;20630;-53
2020/12/28 06:54:39;;;;;;;2.07;1.23;;;8.80;96.00;;;;;;5038513;28;20692;-53
2020/12/28 06:57:06;;;;;;;2.10;1.50;;;8.80;95.90;;;;;;5030063;28;20693;-53
2020/12/28 06:59:33;;;;;;;5.33;1.00;;;8.80;96.00;;;;;;5029776;28;20690;-51
2020/12/28 07:02:00;;;;;;;1.13;1.03;;;8.80;95.90;;;;;;5030016;28;20627;-53
2020/12/28 07:04:27;;;;;;;1.10;0.80;;;8.90;96.00;;;;;;5030000;28;20658;-53
2020/12/28 07:06:57;;;;;;;1.07;0.97;;;8.90;96.00;;;;;;5030226;28;21034;-53
2020/12/28 07:09:24;;;;;;;3.10;1.00;;;8.90;96.20;;;;;;5030118;28;20684;-52
2020/12/28 07:11:51;;;;;;;4.13;1.07;;;8.90;95.80;;;;;;5029572;28;20659;-51
2020/12/28 07:14:19;;;;;;;1.10;1.00;;;8.90;95.80;;;;;;5029773;28;20669;-50
2020/12/28 07:16:46;;;;;;;2.23;1.20;;;8.90;95.80;;;;;;5033101;28;20723;-51
2020/12/28 07:19:12;;;;;;;1.50;1.20;;;8.90;95.60;;;;;;5049710;28;20658;-51
2020/12/28 07:21:39;;;;;;;0.97;0.97;;;8.90;95.50;;;;;;5050083;28;20657;-51
2020/12/28 07:24:07;;;;;;;2.00;1.10;;;8.90;95.50;;;;;;5049514;28;20661;-51
2020/12/28 07:26:33;;;;;;;1.07;0.97;;;8.80;95.30;;;;;;5050002;28;21229;-51
2020/12/28 07:29:01;;;;;;;1.60;1.10;;;8.80;95.30;;;;;;5049336;28;21049;-51
2020/12/28 07:31:28;;;;;;;1.00;0.73;;;8.80;95.40;;;;;;5049611;28;21029;-52
2020/12/28 07:33:54;;;;;;;1.27;1.00;;;8.80;95.60;;;;;;5049811;28;20653;-51
2020/12/28 07:36:25;;;;;;;1.20;1.10;;;8.80;95.30;;;;;;5049705;28;20720;-51
2020/12/28 07:38:52;;;;;;;7.90;3.63;;;8.80;95.30;;;;;;5049414;28;20625;-51
2020/12/28 07:41:20;;;;;;;2.07;1.27;;;8.80;95.20;;;;;;5049319;28;20672;-51
2020/12/28 07:43:50;;;;;;;3.10;1.10;;;8.70;95.20;;;;;;5033479;28;21201;-51
2020/12/28 07:46:26;;;;;;;1.67;1.10;;;8.80;95.20;;;;;;5033355;28;21044;-51
2020/12/28 07:48:53;;;;;;;1.07;0.97;;;8.70;95.20;;;;;;5033859;28;20645;-51
2020/12/28 07:51:22;;;;;;;2.50;1.50;;;8.80;95.20;;;;;;5033344;28;20676;-53
2020/12/28 07:53:50;;;;;;;1.37;1.27;;;8.80;95.20;;;;;;5033187;28;20665;-52
2020/12/28 07:56:22;;;;;;;1.73;1.63;;;8.70;95.10;;;;;;5032949;28;20697;-51
2020/12/28 07:58:53;;;;;;;1.13;1.03;;;8.70;95.10;;;;;;5032679;28;20658;-52
2020/12/28 08:01:24;;;;;;;1.93;1.70;;;8.70;95.20;;;;;;5033401;28;20688;-51
2020/12/28 08:03:52;;;;;;;1.93;1.70;;;8.70;95.20;;;;;;5033126;28;20662;-51
2020/12/28 08:06:18;;;;;;;1.20;0.90;;;8.70;95.20;;;;;;5032862;28;20665;-51
2020/12/28 08:08:45;;;;;;;4.50;1.70;;;8.70;95.10;;;;;;5033198;28;20681;-51
2020/12/28 08:11:12;;;;;;;1.10;1.00;;;8.70;95.10;;;;;;5033107;28;20658;-52
2020/12/28 08:13:38;;;;;;;4.40;1.37;;;8.80;95.10;;;;;;5032647;28;20662;-51
2020/12/28 08:16:09;;;;;;;1.70;1.03;;;8.80;95.00;;;;;;5032931;28;20685;-50
2020/12/28 08:18:46;;;;;;;1.43;1.33;;;8.80;94.90;;;;;;5051179;28;20691;-51
2020/12/28 08:21:13;;;;;;;1.23;1.13;;;8.80;94.80;;;;;;5052372;28;20665;-51
2020/12/28 08:23:39;;;;;;;1.50;1.40;;;8.80;95.00;;;;;;5052971;28;20691;-51
2020/12/28 08:26:19;;;;;;;1.57;1.10;;;8.80;94.50;;;;;;5052778;28;20630;-52
2020/12/28 08:28:49;;;;;;;1.30;1.20;;;8.90;94.50;;;;;;5052486;28;20664;-51
2020/12/28 08:31:16;;;;;;;1.80;1.47;;;8.90;94.50;;;;;;5052591;28;20650;-51
2020/12/28 08:33:43;;;;;;;1.43;1.33;;;8.90;94.50;;;;;;5052425;28;21038;-51
2020/12/28 08:36:11;;;;;;;3.20;1.80;;;8.90;94.50;;;;;;5052402;28;21077;-51
2020/12/28 08:38:37;;;;;;;1.50;1.40;;;8.90;94.40;;;;;;5052311;28;21188;-51
2020/12/28 08:41:04;;;;;;;1.90;1.70;;;8.90;94.50;;;;;;5052591;28;20692;-51
2020/12/28 08:43:31;;;;;;;2.00;1.80;;;8.90;94.60;;;;;;5051759;28;20983;-51
2020/12/28 08:46:02;;;;;;;2.00;1.50;;;8.90;94.50;;;;;;5051828;28;20626;-51
2020/12/28 08:48:28;;;;;;;2.40;2.20;;;8.90;94.40;;;;;;5051390;28;21138;-51
2020/12/28 08:50:55;;;;;;;1.13;1.00;;;9.00;94.40;;;;;;5051321;28;20800;-51
2020/12/28 08:53:23;;;;;;;1.60;1.30;;;9.00;94.40;;;;;;5050219;28;20653;-51
2020/12/28 08:56:02;;;;;;;2.00;1.23;;;9.00;94.40;;;;;;5051522;28;20756;-50
2020/12/28 08:58:29;;;;;;;2.00;1.80;;;9.10;94.30;;;;;;5051673;28;20637;-52
2020/12/28 09:00:55;;;;;;;1.70;1.40;;;9.10;94.10;;;;;;5033523;28;20645;-51
2020/12/28 09:03:22;;;;;;;1.63;1.53;;;9.10;94.10;;;;;;5051434;28;20664;-52
2020/12/28 09:05:49;;;;;;;1.17;1.17;;;9.00;94.10;;;;;;5051164;28;20664;-52
2020/12/28 09:08:16;;;;;;;1.40;1.30;;;9.00;94.20;;;;;;5051102;28;21316;-53
2020/12/28 09:10:43;;;;;;;2.10;1.10;;;9.10;94.20;;;;;;5051499;28;20688;-50
2020/12/28 09:13:10;;;;;;;4.13;1.73;;;9.10;94.30;;;;;;5051253;28;20638;-51
2020/12/28 09:15:37;;;;;;;1.50;1.20;;;9.10;94.20;;;;;;5051582;28;20672;-52
2020/12/28 09:18:03;;;;;;;2.00;1.57;;;9.10;94.30;;;;;;5051046;28;21035;-52
2020/12/28 09:20:30;;;;;;;2.20;1.40;;;9.10;94.20;;;;;;5050378;28;20701;-52
2020/12/28 09:22:57;;;;;;;1.40;1.27;;;9.20;94.20;;;;;;5051110;28;20668;-52
2020/12/28 09:25:24;;;;;;;1.27;1.07;;;9.20;94.10;;;;;;5051511;28;20634;-51
2020/12/28 09:27:52;;;;;;;1.60;1.50;;;9.20;94.20;;;;;;5032681;28;20637;-52
2020/12/28 09:30:18;;;;;;;1.37;1.27;;;9.20;94.40;;;;;;5051119;28;20709;-52
2020/12/28 09:32:45;;;;;;;1.67;1.57;;;9.20;94.50;;;;;;5051282;28;20652;-50
2020/12/28 09:35:12;;;;;;;2.80;1.93;;;9.30;94.50;;;;;;5051190;28;20652;-51
2020/12/28 09:37:39;;;;;;;1.40;1.30;;;9.30;94.40;;;;;;5050503;28;20693;-51
2020/12/28 09:40:05;;;;;;;1.90;1.80;;;9.30;94.30;;;;;;5050755;28;20646;-52
2020/12/28 09:42:32;;;;;;;1.37;1.10;;;9.30;94.40;;;;;;5042338;28;20693;-52
2020/12/28 09:45:00;;;;;;;3.43;1.33;;;9.30;94.00;;;;;;5050496;28;20669;-51
2020/12/28 09:47:26;;;;;;;1.10;1.00;;;9.30;93.60;;;;;;5050366;28;20680;-53
2020/12/28 09:49:53;;;;;;;1.03;0.93;;;9.30;93.20;;;;;;5050081;28;20688;-53
2020/12/28 09:52:20;;;;;;;1.43;1.30;;;9.30;93.10;;;;;;5050407;28;20622;-53
2020/12/28 09:54:47;;;;;;;3.57;1.97;;;9.20;92.90;;;;;;5050315;28;20630;-52
2020/12/28 09:57:13;;;;;;;1.20;1.10;;;9.10;93.00;;;;;;5050142;28;20686;-51
2020/12/28 09:59:40;;;;;;;1.70;1.37;;;9.10;93.10;;;;;;5050535;28;20681;-52
2020/12/28 10:02:08;;;;;;;1.93;1.40;;;9.00;93.10;;;;;;5050193;28;21182;-51
2020/12/28 10:04:35;;;;;;;1.50;1.40;;;9.00;93.20;;;;;;5049818;28;20634;-53
2020/12/28 10:07:01;;;;;;;0.93;0.77;;;9.00;93.20;;;;;;5050160;28;20661;-52
2020/12/28 10:09:28;;;;;;;1.50;1.40;;;9.10;93.30;;;;;;5031919;28;20731;-50
2020/12/28 10:11:55;;;;;;;1.37;0.90;;;9.10;93.20;;;;;;5050495;28;20688;-52
2020/12/28 10:14:21;;;;;;;1.17;1.10;;;9.10;93.10;;;;;;5050154;28;20662;-52
2020/12/28 10:16:48;;;;;;;1.50;1.10;;;9.20;93.20;;;;;;5031811;28;20646;-52
2020/12/28 10:19:16;;;;;;;1.00;0.90;;;9.30;93.20;;;;;;5050194;28;21031;-53
2020/12/28 10:21:43;;;;;;;1.67;1.50;;;9.30;93.00;;;;;;5050647;28;20610;-53
2020/12/28 10:24:09;;;;;;;1.20;0.93;;;9.40;92.90;;;;;;5050488;28;20723;-51
2020/12/28 10:26:36;;;;;;;1.97;1.27;;;9.40;92.80;;;;;;5050793;28;20637;-51
2020/12/28 10:29:03;;;;;;;2.10;1.30;;;9.50;92.90;;;;;;5050043;28;20618;-51
2020/12/28 10:31:30;;;;;;;1.47;0.97;;;9.50;93.20;;;;;;5049940;28;21056;-51
2020/12/28 10:33:56;;;;;;;0.90;0.90;;;9.60;92.70;;;;;;5049820;28;20725;-51
2020/12/28 10:36:25;;;;;;;1.83;1.73;;;9.60;92.60;;;;;;5049602;28;20690;-52
2020/12/28 10:38:52;;;;;;;1.50;1.00;;;9.60;92.60;;;;;;5049643;28;20666;-53
2020/12/28 10:41:24;;;;;;;1.53;1.13;;;9.60;92.70;;;;;;5049907;28;20657;-53
2020/12/28 10:43:51;;;;;;;1.63;1.27;;;9.70;92.80;;;;;;5050076;28;20662;-52
2020/12/28 10:46:17;;;;;;;0.80;0.70;;;9.70;92.80;;;;;;5049979;28;21194;-52
2020/12/28 10:48:44;;;;;;;1.53;1.43;;;9.80;92.70;;;;;;5049829;28;20684;-51
2020/12/28 10:51:11;;;;;;;1.03;0.93;;;9.90;92.60;;;;;;5049734;28;20681;-52
2020/12/28 10:53:39;;;;;;;2.40;1.63;;;10.00;92.00;;;;;;5050066;28;20645;-52
2020/12/28 10:56:07;;;;;;;1.87;1.13;;;10.10;91.90;;;;;;5049716;28;21050;-53
2020/12/28 10:58:34;;;;;;;2.00;1.23;;;10.10;91.60;;;;;;5049708;28;20679;-52
2020/12/28 11:01:00;;;;;;;1.40;1.23;;;10.10;91.20;;;;;;5049163;28;20768;-51
2020/12/28 11:03:27;;;;;;;1.70;1.33;;;10.00;91.10;;;;;;5049334;28;21042;-52
2020/12/28 11:05:54;;;;;;;2.80;1.60;;;10.00;91.30;;;;;;5049836;28;20665;-52
2020/12/28 11:08:20;;;;;;;2.00;1.77;;;9.90;91.90;;;;;;5048857;28;20669;-51
2020/12/28 11:10:48;;;;;;;1.70;1.40;;;9.90;92.00;;;;;;5049505;28;20686;-52
2020/12/28 11:13:15;;;;;;;1.53;1.43;;;9.90;92.30;;;;;;5049421;28;20658;-52
2020/12/28 11:15:41;;;;;;;2.60;1.70;;;10.00;91.70;;;;;;5049569;28;20630;-50
2020/12/28 11:18:09;;;;;;;1.80;1.33;;;10.00;91.60;;;;;;5053383;28;20654;-51
2020/12/28 11:20:36;;;;;;;2.60;1.30;;;10.00;91.60;;;;;;5099372;22;20698;-56
2020/12/28 11:23:03;;;;;;;1.60;1.50;;;10.00;91.50;;;;;;5095530;28;20633;-57
2020/12/28 11:25:29;;;;;;;3.23;1.47;;;10.00;91.30;;;;;;5095242;28;20632;-58
2020/12/28 11:27:57;;;;;;;3.57;1.70;;;10.00;91.20;;;;;;5095510;28;20640;-58
2020/12/28 11:30:24;;;;;;;1.90;1.27;;;9.90;91.70;;;;;;5084738;28;20680;-58
2020/12/28 11:32:51;;;;;;;1.87;1.33;;;9.90;91.70;;;;;;5075378;28;20663;-57
2020/12/28 11:35:17;;;;;;;1.67;1.43;;;9.90;91.80;;;;;;5075236;28;20601;-58
2020/12/28 11:37:44;;;;;;;1.33;0.97;;;10.00;91.40;;;;;;5075321;28;20745;-58
2020/12/28 11:40:11;;;;;;;2.80;1.60;;;10.00;91.30;;;;;;5074891;28;20668;-57
2020/12/28 11:42:38;;;;;;;1.30;1.20;;;10.10;91.20;;;;;;5066801;28;20626;-56
2020/12/28 11:45:08;;;;;;;1.70;1.00;;;10.10;91.20;;;;;;5070576;28;20625;-56
2020/12/28 11:47:35;;;;;;;1.30;1.20;;;10.10;91.20;;;;;;5074311;28;20655;-56
2020/12/28 11:50:01;;;;;;;0.93;0.90;;;10.20;91.20;;;;;;5056620;28;20684;-56
2020/12/28 11:52:28;;;;;;;2.13;1.20;;;10.10;90.90;;;;;;5075459;28;20637;-57
2020/12/28 11:54:55;;;;;;;2.53;0.97;;;10.10;90.80;;;;;;5074575;28;20632;-56
2020/12/28 11:57:22;;;;;;;1.90;1.47;;;10.10;90.90;;;;;;5074233;28;20699;-56
2020/12/28 11:59:49;;;;;;;2.00;1.43;;;10.10;90.80;;;;;;5074204;28;20709;-56
2020/12/28 12:02:19;;;;;;;2.60;1.53;;;10.10;90.90;;;;;;5074625;28;20707;-57
2020/12/28 12:04:49;;;;;;;1.50;1.00;;;10.20;90.80;;;;;;5074272;28;20725;-58
2020/12/28 12:07:16;;;;;;;1.10;1.00;;;10.10;90.80;;;;;;5074520;28;20659;-58
2020/12/28 12:09:44;;;;;;;1.60;1.47;;;10.10;90.80;;;;;;5074779;28;20672;-57
2020/12/28 12:12:11;;;;;;;1.40;1.30;;;10.10;90.90;;;;;;5073992;28;20997;-57
2020/12/28 12:14:38;;;;;;;2.33;1.63;;;10.10;90.90;;;;;;5074050;28;20621;-57
2020/12/28 12:17:05;;;;;;;2.93;1.80;;;10.10;91.10;;;;;;5074070;28;20696;-58
2020/12/28 12:19:33;;;;;;;1.40;1.30;;;10.20;90.90;;;;;;5074369;28;20597;-58
2020/12/28 12:22:00;;;;;;;1.83;1.20;;;10.20;90.70;;;;;;5055882;28;20678;-56
2020/12/28 12:24:27;;;;;;;2.57;1.87;;;10.10;90.60;;;;;;5074079;28;20639;-56
2020/12/28 12:26:53;;;;;;;1.80;1.37;;;10.00;91.10;;;;;;5055813;28;20625;-58
2020/12/28 12:29:20;;;;;;;1.23;1.13;;;10.10;91.00;;;;;;5074265;28;21196;-58
2020/12/28 12:31:49;;;;;;;2.47;1.63;;;10.10;91.10;;;;;;5073680;28;20644;-57
2020/12/28 12:34:16;;;;;;;1.80;1.10;;;10.20;90.90;;;;;;5073732;28;20628;-58
2020/12/28 12:36:44;;;;;;;1.90;0.90;;;10.20;90.90;;;;;;5073367;28;21057;-59
2020/12/28 12:39:11;;;;;;;1.43;1.33;;;10.20;90.70;;;;;;5073687;28;20633;-56
2020/12/28 12:41:37;;;;;;;1.83;1.10;;;10.20;90.60;;;;;;5073099;28;21012;-57
2020/12/28 12:44:04;;;;;;;1.40;1.30;;;10.20;90.60;;;;;;5073633;28;21172;-57
2020/12/28 12:46:31;;;;;;;1.40;1.30;;;10.10;90.50;;;;;;5073002;28;20660;-57
2020/12/28 12:48:59;;;;;;;1.73;1.57;;;10.10;90.70;;;;;;5055656;28;21044;-55
2020/12/28 12:51:27;;;;;;;1.53;1.07;;;10.10;90.70;;;;;;5055701;28;21004;-57
2020/12/28 12:53:54;;;;;;;1.20;1.10;;;10.10;90.80;;;;;;5073217;28;20699;-57
2020/12/28 12:56:21;;;;;;;0.80;0.80;;;10.10;90.80;;;;;;5073301;28;20990;-57